x

Halibut Bank (46146) Weather Station

5:00 - Sun 1st Feb 2015 All times are PST. -8 hours from GMT.

  • Peak Period 3s
  • Wind
    9mph, 11mph gusts
  • Sea Temp 46°f
  • Aire Temp 46°f
  • Sea Pressure 1017.3mb
  • Halibut Bank
  • Halibut Bank

More Historic Weather Station data

Upgrade to MSW Pro to gain access to the past 30 days of data for over 8000 Wavebouys and Weather Stations around the globe.

Join Pro

Comparision Forecast

View Surf forecast
   
dom 02/01 5:00  -  3s 9 11 mph 1017.3mb 46f 46f
4:00  -  3s 2 4 mph 1017.6mb 46f 45f
3:00 0.3ft 4s  -  4 mph 1018.1mb 46f 44f
2:00 0.3ft 3s  -  2 mph 1018.7mb 46f 45f
1:00 0.3ft 4s 4
mph
1019.3mb 46f 45f
12:00 0.3ft 6s 7
mph
1020mb 46f 45f
sáb 01/31 11:00 0.3ft 6s 7
mph
1021.1mb 46f 45f
10:00 0.3ft 2s 2 4 mph 1021.1mb 46f 45f
9:00 0.3ft 6s 4
mph
1021.4mb 46f 45f
8:00 0.3ft 2s 4 7 mph 1021.5mb 46f 45f
7:00 0.7ft 2s 9 11 mph 1022mb 46f 45f
6:00 0.7ft 2s 7 9 mph 1022.7mb 46f 45f
5:00 0.7ft 2s 9 11 mph 1022.5mb 46f 44f
4:00 0.7ft 2s 11 13 mph 1022.7mb 46f 44f
2:00 0.3ft 4s 9 11 mph 1022.8mb 46f 43f
1:00 0.3ft 3s 9
mph
1023.6mb 46f 43f
12:00 0.3ft 4s 4
mph
1024.4mb 46f 43f
11:00 0.3ft 2s 2 4 mph 1025.1mb 45f 43f
10:00 0.3ft 4s 7
mph
1025.5mb 45f 42f
9:00 0.3ft 5s 4
mph
1024.9mb 45f 42f
8:00 0.3ft 3s 2 4 mph 1025.4mb 44f 43f
7:00 0.3ft 6s  -  mph 1025.3mb 45f 42f
6:00 0.3ft 2s 4
mph
1024.9mb 44f 42f
5:00 0.3ft 3s  -  2 mph 1025.6mb 44f 42f
4:00 0.7ft 3s 2 4 mph 1025.3mb 45f 42f
3:00 0.7ft 3s 2 4 mph 1025.6mb 46f 42f
2:00 0.7ft 3s 2 4 mph 1025.6mb 45f 42f
1:00 0.7ft 3s 7 9 mph 1025.5mb 46f 42f
12:00 1ft 3s 4 7 mph 1025.3mb 46f 42f
vie 01/30 11:00 1.3ft 3s 11 13 mph 1025mb 46f 42f
10:00 1.3ft 3s 13 16 mph 1024.9mb 46f 42f
9:00 1.3ft 3s 13 18 mph 1024.9mb 46f 43f
8:00 1.3ft 3s 16 18 mph 1024.9mb 46f 44f
7:00 1ft 2s 16 18 mph 1025.1mb 46f 44f
6:00 0.7ft 2s 13 16 mph 1025.4mb 46f 44f
5:00 0.7ft 2s 13 16 mph 1025.4mb 46f 43f
4:00 0.3ft 4s 9 11 mph 1025.5mb 46f 44f
3:00 0.3ft 2s 7 9 mph 1025.6mb 46f 42f
2:00 0.3ft 6s 4 9 mph 1025.6mb 46f 42f
1:00 0.3ft 5s 4 7 mph 1026.3mb 46f 40f
12:00 0.3ft 6s 2 4 mph 1026.5mb 46f 40f
11:00 0.3ft 2s 2 4 mph 1027mb 46f 41f
10:00 0.3ft 6s  -  2 mph 1027.6mb 46f 42f
9:00 0.3ft 3s  -  2 mph 1026.5mb 44f 41f
8:00 0.3ft 5s  -  2 mph 1026.8mb 44f 41f
7:00 0.3ft 3s 2
mph
1026.7mb 44f 42f
6:00 0.3ft 4s 4
mph
1026.8mb 44f 43f
5:00 0.3ft 3s 2
mph
1026.7mb 45f 43f
4:00 0.3ft 2s 4
mph
1026.9mb 45f 43f
3:00 0.3ft 2s 4
mph
1026.9mb 45f 43f
2:00 0.3ft 2s  -  2 mph 1027.1mb 45f 44f
1:00 0.3ft 2s 4
mph
1027.3mb 45f 44f
12:00 0.3ft 2s 4
mph
1027.4mb 45f 44f
jue 01/29 11:00 0.3ft 2s 2 4 mph 1027.4mb 45f 45f
10:00 0.3ft 2s 4 7 mph 1027.5mb 45f 45f
9:00 0.7ft 6s 7 9 mph 1027.4mb 45f 46f
8:00 0.3ft 2s 7
mph
1027.4mb 45f 46f
7:00 0.3ft 6s 4
mph
1027.6mb 45f 46f
6:00 0.7ft 3s 4 7 mph 1027.4mb 46f 46f
5:00 0.7ft 3s 7
mph
1027.2mb 46f 46f
4:00 1ft 3s 9 11 mph 1027.1mb 46f 46f
3:00 1ft 3s 11 13 mph 1027.4mb 46f 46f
2:00 0.7ft 2s 13 16 mph 1027.7mb 46f 46f
1:00 0.7ft 2s 9 11 mph 1027.9mb 46f 46f
12:00 0.7ft 2s 11 16 mph 1028.6mb 46f 45f
11:00 0.7ft 2s 9 11 mph 1029.4mb 46f 45f
10:00 0.7ft 5s 11 13 mph 1029.6mb 46f 45f
9:00 0.3ft 3s 11 13 mph 1029.9mb 45f 44f
8:00 0.3ft 6s 4 7 mph 1029.5mb 45f 44f
7:00 0.3ft 5s 7
mph
1029.2mb 45f 44f
6:00 0.3ft 2s 2 4 mph 1029.1mb 45f 44f
5:00 0.3ft 2s 4 7 mph 1029.5mb 45f 45f
4:00 0.3ft 2s 2
mph
1029.8mb 45f 44f
3:00 0.3ft 2s 4
mph
1029.9mb 46f 45f
2:00 0.3ft 2s 4 7 mph 1029.9mb 46f 45f
1:00 0.3ft 2s 7 9 mph 1029.5mb 46f 45f
12:00 0.3ft 2s 7 9 mph 1029.8mb 46f 45f
mié 01/28 11:00 0.3ft 2s 11 13 mph 1029.7mb 46f 45f
10:00 0.3ft 2s 9 11 mph 1029.6mb 46f 45f
9:00 0.3ft 4s 7 9 mph 1029.6mb 45f 45f
8:00 0.3ft 7s 4
mph
1029.5mb 45f 45f
7:00 0.3ft 3s 2
mph
1029.4mb 46f 46f
6:00 0.3ft 6s 2
mph
1029.3mb 46f 46f
5:00 0.3ft 4s 2
mph
1029.1mb 46f 46f
4:00 0.3ft 6s 4
mph
1029.1mb 46f 46f
3:00 0.3ft 3s 2
mph
1029.2mb 47f 47f